sensor_id;sensor_type;location;lat;lon;timestamp;temperature;humidity
45735;DHT22;31446;49.632;8.328;2023-10-31T00:05:49;12.40;99.90
45735;DHT22;31446;49.632;8.328;2023-10-31T00:20:55;12.30;99.90
45735;DHT22;31446;49.632;8.328;2023-10-31T00:36:02;12.20;99.90
45735;DHT22;31446;49.632;8.328;2023-10-31T00:51:09;12.10;99.90
45735;DHT22;31446;49.632;8.328;2023-10-31T01:06:15;11.90;99.90
45735;DHT22;31446;49.632;8.328;2023-10-31T01:21:21;11.60;99.90
45735;DHT22;31446;49.632;8.328;2023-10-31T01:36:28;11.50;99.90
45735;DHT22;31446;49.632;8.328;2023-10-31T01:51:34;11.50;99.90
45735;DHT22;31446;49.632;8.328;2023-10-31T02:06:40;11.20;99.90
45735;DHT22;31446;49.632;8.328;2023-10-31T02:21:46;11.00;99.90
45735;DHT22;31446;49.632;8.328;2023-10-31T02:36:52;11.20;99.90
45735;DHT22;31446;49.632;8.328;2023-10-31T02:51:58;11.30;99.90
45735;DHT22;31446;49.632;8.328;2023-10-31T03:07:04;11.40;99.90
45735;DHT22;31446;49.632;8.328;2023-10-31T03:22:11;11.40;99.90
45735;DHT22;31446;49.632;8.328;2023-10-31T03:37:17;11.50;99.90
45735;DHT22;31446;49.632;8.328;2023-10-31T03:52:23;11.70;99.90
45735;DHT22;31446;49.632;8.328;2023-10-31T04:07:29;11.70;99.90
45735;DHT22;31446;49.632;8.328;2023-10-31T04:22:35;11.60;99.90
45735;DHT22;31446;49.632;8.328;2023-10-31T04:37:41;11.70;99.90
45735;DHT22;31446;49.632;8.328;2023-10-31T04:52:47;11.70;99.90
45735;DHT22;31446;49.632;8.328;2023-10-31T05:07:53;11.60;99.90
45735;DHT22;31446;49.632;8.328;2023-10-31T05:22:59;11.60;99.90
45735;DHT22;31446;49.632;8.328;2023-10-31T05:38:06;11.60;99.90
45735;DHT22;31446;49.632;8.328;2023-10-31T05:53:12;11.20;99.90
45735;DHT22;31446;49.632;8.328;2023-10-31T06:08:18;11.10;99.90
45735;DHT22;31446;49.632;8.328;2023-10-31T06:23:24;11.20;99.90
45735;DHT22;31446;49.632;8.328;2023-10-31T06:38:30;11.30;99.90
45735;DHT22;31446;49.632;8.328;2023-10-31T06:53:36;11.40;99.90
45735;DHT22;31446;49.632;8.328;2023-10-31T07:08:43;11.60;99.90
45735;DHT22;31446;49.632;8.328;2023-10-31T07:23:49;11.80;99.90
45735;DHT22;31446;49.632;8.328;2023-10-31T07:38:55;11.80;99.90
45735;DHT22;31446;49.632;8.328;2023-10-31T07:54:01;11.90;99.90
45735;DHT22;31446;49.632;8.328;2023-10-31T08:09:07;12.20;99.90
45735;DHT22;31446;49.632;8.328;2023-10-31T08:24:24;12.50;99.90
45735;DHT22;31446;49.632;8.328;2023-10-31T08:39:30;12.50;99.90
45735;DHT22;31446;49.632;8.328;2023-10-31T08:54:36;12.80;99.90
45735;DHT22;31446;49.632;8.328;2023-10-31T09:09:43;13.00;99.90
45735;DHT22;31446;49.632;8.328;2023-10-31T09:24:49;13.30;99.90
45735;DHT22;31446;49.632;8.328;2023-10-31T09:39:55;14.40;99.90
45735;DHT22;31446;49.632;8.328;2023-10-31T09:55:01;14.90;99.90
45735;DHT22;31446;49.632;8.328;2023-10-31T10:10:10;14.90;99.90
45735;DHT22;31446;49.632;8.328;2023-10-31T10:25:17;14.70;99.90
45735;DHT22;31446;49.632;8.328;2023-10-31T10:40:25;14.20;99.90
45735;DHT22;31446;49.632;8.328;2023-10-31T10:55:35;14.00;99.90
45735;DHT22;31446;49.632;8.328;2023-10-31T11:10:45;14.80;99.90
45735;DHT22;31446;49.632;8.328;2023-10-31T11:25:55;15.20;99.90
45735;DHT22;31446;49.632;8.328;2023-10-31T11:41:03;15.20;99.90
45735;DHT22;31446;49.632;8.328;2023-10-31T11:56:12;15.00;99.90
45735;DHT22;31446;49.632;8.328;2023-10-31T12:11:19;15.00;99.90
45735;DHT22;31446;49.632;8.328;2023-10-31T12:26:26;15.90;99.90
45735;DHT22;31446;49.632;8.328;2023-10-31T12:41:32;15.70;99.90
45735;DHT22;31446;49.632;8.328;2023-10-31T12:56:42;17.00;99.90
45735;DHT22;31446;49.632;8.328;2023-10-31T13:11:49;17.10;99.90
45735;DHT22;31446;49.632;8.328;2023-10-31T13:26:55;17.10;99.90
45735;DHT22;31446;49.632;8.328;2023-10-31T13:42:03;17.00;99.90
45735;DHT22;31446;49.632;8.328;2023-10-31T13:57:09;16.40;99.90
45735;DHT22;31446;49.632;8.328;2023-10-31T14:12:16;17.30;99.90
45735;DHT22;31446;49.632;8.328;2023-10-31T14:27:22;17.40;99.90
45735;DHT22;31446;49.632;8.328;2023-10-31T14:42:28;17.30;99.90
45735;DHT22;31446;49.632;8.328;2023-10-31T14:57:34;17.30;99.90
45735;DHT22;31446;49.632;8.328;2023-10-31T15:12:41;16.20;99.90
45735;DHT22;31446;49.632;8.328;2023-10-31T15:27:47;15.40;99.90
45735;DHT22;31446;49.632;8.328;2023-10-31T15:42:53;14.90;99.90
45735;DHT22;31446;49.632;8.328;2023-10-31T15:57:59;14.70;99.90
45735;DHT22;31446;49.632;8.328;2023-10-31T16:13:05;14.40;99.90
45735;DHT22;31446;49.632;8.328;2023-10-31T16:28:11;14.00;99.90
45735;DHT22;31446;49.632;8.328;2023-10-31T16:43:18;13.60;99.90
45735;DHT22;31446;49.632;8.328;2023-10-31T16:58:24;13.30;99.90
45735;DHT22;31446;49.632;8.328;2023-10-31T17:13:31;12.80;99.90
45735;DHT22;31446;49.632;8.328;2023-10-31T17:28:38;12.70;99.90
45735;DHT22;31446;49.632;8.328;2023-10-31T17:43:45;12.70;99.90
45735;DHT22;31446;49.632;8.328;2023-10-31T17:58:51;12.80;99.90
45735;DHT22;31446;49.632;8.328;2023-10-31T18:13:57;12.70;99.90
45735;DHT22;31446;49.632;8.328;2023-10-31T18:29:03;12.70;99.90
45735;DHT22;31446;49.632;8.328;2023-10-31T18:44:09;12.70;99.90
45735;DHT22;31446;49.632;8.328;2023-10-31T18:59:16;12.80;99.90
45735;DHT22;31446;49.632;8.328;2023-10-31T19:14:22;12.80;99.90
45735;DHT22;31446;49.632;8.328;2023-10-31T19:29:28;12.80;99.90
45735;DHT22;31446;49.632;8.328;2023-10-31T19:44:34;12.80;99.90
45735;DHT22;31446;49.632;8.328;2023-10-31T19:59:44;12.70;99.90
45735;DHT22;31446;49.632;8.328;2023-10-31T20:14:50;12.60;99.90
45735;DHT22;31446;49.632;8.328;2023-10-31T20:29:56;12.70;99.90
45735;DHT22;31446;49.632;8.328;2023-10-31T20:45:03;12.70;99.90
45735;DHT22;31446;49.632;8.328;2023-10-31T21:00:11;12.60;99.90
45735;DHT22;31446;49.632;8.328;2023-10-31T21:15:18;12.40;99.90
45735;DHT22;31446;49.632;8.328;2023-10-31T21:30:24;12.50;99.90
45735;DHT22;31446;49.632;8.328;2023-10-31T21:45:30;12.50;99.90
45735;DHT22;31446;49.632;8.328;2023-10-31T22:00:36;12.50;99.90
45735;DHT22;31446;49.632;8.328;2023-10-31T22:15:43;12.40;99.90
45735;DHT22;31446;49.632;8.328;2023-10-31T22:30:49;12.20;99.90
45735;DHT22;31446;49.632;8.328;2023-10-31T22:45:55;12.00;99.90
45735;DHT22;31446;49.632;8.328;2023-10-31T23:01:02;12.00;99.90
45735;DHT22;31446;49.632;8.328;2023-10-31T23:16:09;12.00;99.90
45735;DHT22;31446;49.632;8.328;2023-10-31T23:31:15;12.20;99.90
45735;DHT22;31446;49.632;8.328;2023-10-31T23:46:21;12.10;99.90
